sensor_id;sensor_type;location;lat;lon;timestamp;P1;durP1;ratioP1;P2;durP2;ratioP2
49710;SDS011;35602;44.534;18.696;2022-08-19T00:01:51;18.48;;;16.58;;
49710;SDS011;35602;44.534;18.696;2022-08-19T00:06:55;19.20;;;16.90;;
49710;SDS011;35602;44.534;18.696;2022-08-19T00:11:56;18.70;;;16.80;;
49710;SDS011;35602;44.534;18.696;2022-08-19T00:16:57;18.15;;;16.35;;
49710;SDS011;35602;44.534;18.696;2022-08-19T00:21:58;20.12;;;16.95;;
49710;SDS011;35602;44.534;18.696;2022-08-19T00:26:59;17.40;;;15.70;;
49710;SDS011;35602;44.534;18.696;2022-08-19T00:32:01;17.80;;;16.00;;
49710;SDS011;35602;44.534;18.696;2022-08-19T00:37:03;19.05;;;17.15;;
49710;SDS011;35602;44.534;18.696;2022-08-19T00:42:04;17.05;;;15.25;;
49710;SDS011;35602;44.534;18.696;2022-08-19T00:47:06;19.25;;;16.80;;
49710;SDS011;35602;44.534;18.696;2022-08-19T00:52:08;18.15;;;16.08;;
49710;SDS011;35602;44.534;18.696;2022-08-19T00:57:15;17.77;;;15.98;;
49710;SDS011;35602;44.534;18.696;2022-08-19T01:02:18;16.90;;;15.10;;
49710;SDS011;35602;44.534;18.696;2022-08-19T01:07:19;17.52;;;15.73;;
49710;SDS011;35602;44.534;18.696;2022-08-19T01:12:20;17.37;;;15.57;;
49710;SDS011;35602;44.534;18.696;2022-08-19T01:17:21;17.62;;;15.82;;
49710;SDS011;35602;44.534;18.696;2022-08-19T01:22:27;16.60;;;14.87;;
49710;SDS011;35602;44.534;18.696;2022-08-19T01:27:38;16.33;;;14.68;;
49710;SDS011;35602;44.534;18.696;2022-08-19T01:32:41;16.50;;;14.77;;
49710;SDS011;35602;44.534;18.696;2022-08-19T01:37:47;16.98;;;15.27;;
49710;SDS011;35602;44.534;18.696;2022-08-19T01:43:10;15.75;;;14.10;;
49710;SDS011;35602;44.534;18.696;2022-08-19T01:48:11;15.45;;;13.82;;
49710;SDS011;35602;44.534;18.696;2022-08-19T01:53:12;16.05;;;14.35;;
49710;SDS011;35602;44.534;18.696;2022-08-19T01:58:17;15.98;;;14.38;;
49710;SDS011;35602;44.534;18.696;2022-08-19T02:03:20;15.82;;;14.23;;
49710;SDS011;35602;44.534;18.696;2022-08-19T02:08:22;16.12;;;14.52;;
49710;SDS011;35602;44.534;18.696;2022-08-19T02:13:23;15.25;;;13.65;;
49710;SDS011;35602;44.534;18.696;2022-08-19T02:18:25;15.00;;;13.50;;
49710;SDS011;35602;44.534;18.696;2022-08-19T02:23:26;14.25;;;12.77;;
49710;SDS011;35602;44.534;18.696;2022-08-19T02:28:27;15.38;;;13.88;;
49710;SDS011;35602;44.534;18.696;2022-08-19T02:33:28;14.90;;;13.43;;
49710;SDS011;35602;44.534;18.696;2022-08-19T02:38:29;14.80;;;13.30;;
49710;SDS011;35602;44.534;18.696;2022-08-19T02:43:30;15.43;;;12.98;;
49710;SDS011;35602;44.534;18.696;2022-08-19T02:48:32;14.02;;;12.63;;
49710;SDS011;35602;44.534;18.696;2022-08-19T02:53:33;14.82;;;13.25;;
49710;SDS011;35602;44.534;18.696;2022-08-19T02:58:34;14.10;;;12.70;;
49710;SDS011;35602;44.534;18.696;2022-08-19T03:03:35;15.07;;;13.27;;
49710;SDS011;35602;44.534;18.696;2022-08-19T03:08:36;14.35;;;12.95;;
49710;SDS011;35602;44.534;18.696;2022-08-19T03:13:37;14.02;;;12.63;;
49710;SDS011;35602;44.534;18.696;2022-08-19T03:18:38;13.77;;;12.05;;
49710;SDS011;35602;44.534;18.696;2022-08-19T03:23:39;13.68;;;12.37;;
49710;SDS011;35602;44.534;18.696;2022-08-19T03:28:40;13.57;;;12.18;;
49710;SDS011;35602;44.534;18.696;2022-08-19T03:33:42;13.70;;;12.40;;
49710;SDS011;35602;44.534;18.696;2022-08-19T03:38:46;13.98;;;12.50;;
49710;SDS011;35602;44.534;18.696;2022-08-19T03:43:50;13.55;;;12.15;;
49710;SDS011;35602;44.534;18.696;2022-08-19T03:48:53;13.27;;;11.95;;
49710;SDS011;35602;44.534;18.696;2022-08-19T03:53:56;13.13;;;11.77;;
49710;SDS011;35602;44.534;18.696;2022-08-19T03:58:59;12.88;;;11.57;;
49710;SDS011;35602;44.534;18.696;2022-08-19T04:04:00;12.68;;;11.15;;
49710;SDS011;35602;44.534;18.696;2022-08-19T04:09:02;13.80;;;12.07;;
49710;SDS011;35602;44.534;18.696;2022-08-19T04:14:05;13.07;;;11.55;;
49710;SDS011;35602;44.534;18.696;2022-08-19T04:19:06;12.95;;;11.20;;
49710;SDS011;35602;44.534;18.696;2022-08-19T04:24:07;12.82;;;11.52;;
49710;SDS011;35602;44.534;18.696;2022-08-19T04:29:11;13.10;;;11.75;;
49710;SDS011;35602;44.534;18.696;2022-08-19T04:34:15;11.83;;;10.60;;
49710;SDS011;35602;44.534;18.696;2022-08-19T04:39:23;12.73;;;11.30;;
49710;SDS011;35602;44.534;18.696;2022-08-19T04:44:45;12.25;;;10.68;;
49710;SDS011;35602;44.534;18.696;2022-08-19T04:49:50;12.73;;;11.05;;
49710;SDS011;35602;44.534;18.696;2022-08-19T04:54:51;12.60;;;10.57;;
49710;SDS011;35602;44.534;18.696;2022-08-19T04:59:55;11.35;;;10.23;;
49710;SDS011;35602;44.534;18.696;2022-08-19T05:04:57;13.43;;;11.02;;
49710;SDS011;35602;44.534;18.696;2022-08-19T05:10:01;11.68;;;10.48;;
49710;SDS011;35602;44.534;18.696;2022-08-19T05:15:05;11.98;;;10.75;;
49710;SDS011;35602;44.534;18.696;2022-08-19T05:20:08;11.73;;;10.52;;
49710;SDS011;35602;44.534;18.696;2022-08-19T05:25:30;11.65;;;10.45;;
49710;SDS011;35602;44.534;18.696;2022-08-19T05:30:30;12.20;;;10.68;;
49710;SDS011;35602;44.534;18.696;2022-08-19T05:35:32;11.05;;;9.95;;
49710;SDS011;35602;44.534;18.696;2022-08-19T05:40:34;11.35;;;9.95;;
49710;SDS011;35602;44.534;18.696;2022-08-19T05:45:40;11.60;;;9.90;;
49710;SDS011;35602;44.534;18.696;2022-08-19T05:50:42;11.30;;;10.18;;
49710;SDS011;35602;44.534;18.696;2022-08-19T05:55:44;10.85;;;9.75;;
49710;SDS011;35602;44.534;18.696;2022-08-19T06:00:45;11.12;;;9.98;;
49710;SDS011;35602;44.534;18.696;2022-08-19T06:05:46;11.23;;;10.02;;
49710;SDS011;35602;44.534;18.696;2022-08-19T06:10:46;10.68;;;9.57;;
49710;SDS011;35602;44.534;18.696;2022-08-19T06:15:48;11.73;;;10.43;;
49710;SDS011;35602;44.534;18.696;2022-08-19T06:20:49;12.65;;;10.20;;
49710;SDS011;35602;44.534;18.696;2022-08-19T06:25:50;12.15;;;10.27;;
49710;SDS011;35602;44.534;18.696;2022-08-19T06:30:50;11.15;;;10.05;;
49710;SDS011;35602;44.534;18.696;2022-08-19T06:35:51;12.00;;;10.50;;
49710;SDS011;35602;44.534;18.696;2022-08-19T06:40:59;11.57;;;10.40;;
49710;SDS011;35602;44.534;18.696;2022-08-19T06:46:08;11.82;;;10.57;;
49710;SDS011;35602;44.534;18.696;2022-08-19T06:51:16;12.50;;;11.23;;
49710;SDS011;35602;44.534;18.696;2022-08-19T06:56:20;19.10;;;14.60;;
49710;SDS011;35602;44.534;18.696;2022-08-19T07:01:24;23.20;;;17.17;;
49710;SDS011;35602;44.534;18.696;2022-08-19T07:06:25;25.60;;;18.02;;
49710;SDS011;35602;44.534;18.696;2022-08-19T07:11:26;22.02;;;17.05;;
49710;SDS011;35602;44.534;18.696;2022-08-19T07:16:28;29.08;;;18.87;;
49710;SDS011;35602;44.534;18.696;2022-08-19T07:21:29;24.75;;;17.37;;
49710;SDS011;35602;44.534;18.696;2022-08-19T07:26:31;31.58;;;19.75;;
49710;SDS011;35602;44.534;18.696;2022-08-19T07:31:38;34.92;;;23.10;;
49710;SDS011;35602;44.534;18.696;2022-08-19T07:36:40;44.35;;;26.42;;
49710;SDS011;35602;44.534;18.696;2022-08-19T07:41:42;43.03;;;29.08;;
49710;SDS011;35602;44.534;18.696;2022-08-19T07:46:44;47.30;;;30.85;;
49710;SDS011;35602;44.534;18.696;2022-08-19T07:51:51;51.65;;;32.50;;
49710;SDS011;35602;44.534;18.696;2022-08-19T07:56:54;58.22;;;37.67;;
49710;SDS011;35602;44.534;18.696;2022-08-19T08:01:55;50.15;;;35.38;;
49710;SDS011;35602;44.534;18.696;2022-08-19T08:07:00;53.20;;;35.47;;
49710;SDS011;35602;44.534;18.696;2022-08-19T08:12:24;50.53;;;33.72;;
49710;SDS011;35602;44.534;18.696;2022-08-19T08:17:28;56.67;;;38.53;;
49710;SDS011;35602;44.534;18.696;2022-08-19T08:22:30;64.03;;;43.40;;
49710;SDS011;35602;44.534;18.696;2022-08-19T08:27:49;73.60;;;47.00;;
49710;SDS011;35602;44.534;18.696;2022-08-19T08:32:50;79.20;;;50.70;;
49710;SDS011;35602;44.534;18.696;2022-08-19T08:37:52;76.80;;;49.65;;
49710;SDS011;35602;44.534;18.696;2022-08-19T08:43:37;78.75;;;52.05;;
49710;SDS011;35602;44.534;18.696;2022-08-19T08:48:48;77.43;;;49.33;;
49710;SDS011;35602;44.534;18.696;2022-08-19T08:53:58;70.85;;;48.28;;
49710;SDS011;35602;44.534;18.696;2022-08-19T08:59:02;73.30;;;46.53;;
49710;SDS011;35602;44.534;18.696;2022-08-19T09:04:09;67.18;;;44.45;;
49710;SDS011;35602;44.534;18.696;2022-08-19T09:09:17;61.03;;;40.25;;
49710;SDS011;35602;44.534;18.696;2022-08-19T09:14:52;52.88;;;37.78;;
49710;SDS011;35602;44.534;18.696;2022-08-19T09:20:00;51.15;;;34.20;;
49710;SDS011;35602;44.534;18.696;2022-08-19T09:25:23;47.08;;;30.67;;
49710;SDS011;35602;44.534;18.696;2022-08-19T09:30:25;47.72;;;28.85;;
49710;SDS011;35602;44.534;18.696;2022-08-19T09:35:30;47.80;;;30.62;;
49710;SDS011;35602;44.534;18.696;2022-08-19T09:40:31;54.10;;;33.70;;
49710;SDS011;35602;44.534;18.696;2022-08-19T09:45:33;52.72;;;34.58;;
49710;SDS011;35602;44.534;18.696;2022-08-19T09:50:34;51.80;;;33.83;;
49710;SDS011;35602;44.534;18.696;2022-08-19T09:55:42;49.50;;;33.25;;
49710;SDS011;35602;44.534;18.696;2022-08-19T10:00:43;47.00;;;30.58;;
49710;SDS011;35602;44.534;18.696;2022-08-19T10:05:45;49.10;;;31.35;;
49710;SDS011;35602;44.534;18.696;2022-08-19T10:10:49;47.75;;;30.73;;
49710;SDS011;35602;44.534;18.696;2022-08-19T10:15:51;49.95;;;30.98;;
49710;SDS011;35602;44.534;18.696;2022-08-19T10:21:01;46.10;;;30.35;;
49710;SDS011;35602;44.534;18.696;2022-08-19T10:26:11;42.92;;;30.98;;
49710;SDS011;35602;44.534;18.696;2022-08-19T10:31:16;47.33;;;33.17;;
49710;SDS011;35602;44.534;18.696;2022-08-19T10:36:20;57.28;;;35.70;;
49710;SDS011;35602;44.534;18.696;2022-08-19T10:41:23;58.05;;;39.80;;
49710;SDS011;35602;44.534;18.696;2022-08-19T10:46:27;58.87;;;41.42;;
49710;SDS011;35602;44.534;18.696;2022-08-19T10:51:32;63.28;;;44.60;;
49710;SDS011;35602;44.534;18.696;2022-08-19T10:56:52;60.45;;;44.55;;
49710;SDS011;35602;44.534;18.696;2022-08-19T11:01:53;61.97;;;44.70;;
49710;SDS011;35602;44.534;18.696;2022-08-19T11:07:01;59.47;;;43.42;;
49710;SDS011;35602;44.534;18.696;2022-08-19T11:12:03;61.35;;;38.47;;
49710;SDS011;35602;44.534;18.696;2022-08-19T11:17:05;55.60;;;34.00;;
49710;SDS011;35602;44.534;18.696;2022-08-19T11:22:07;44.33;;;29.00;;
49710;SDS011;35602;44.534;18.696;2022-08-19T11:27:13;42.13;;;24.55;;
49710;SDS011;35602;44.534;18.696;2022-08-19T11:32:14;32.38;;;21.73;;
49710;SDS011;35602;44.534;18.696;2022-08-19T11:37:16;29.25;;;19.25;;
49710;SDS011;35602;44.534;18.696;2022-08-19T11:42:17;30.50;;;18.87;;
49710;SDS011;35602;44.534;18.696;2022-08-19T11:47:36;32.42;;;18.25;;
49710;SDS011;35602;44.534;18.696;2022-08-19T11:52:38;34.30;;;20.17;;
49710;SDS011;35602;44.534;18.696;2022-08-19T11:57:41;39.80;;;24.20;;
49710;SDS011;35602;44.534;18.696;2022-08-19T12:02:43;37.42;;;22.85;;
49710;SDS011;35602;44.534;18.696;2022-08-19T12:07:44;35.53;;;22.80;;
49710;SDS011;35602;44.534;18.696;2022-08-19T12:12:45;42.85;;;24.15;;
49710;SDS011;35602;44.534;18.696;2022-08-19T12:17:46;45.47;;;27.20;;
49710;SDS011;35602;44.534;18.696;2022-08-19T12:22:47;44.72;;;27.67;;
49710;SDS011;35602;44.534;18.696;2022-08-19T12:27:48;40.55;;;27.90;;
49710;SDS011;35602;44.534;18.696;2022-08-19T12:32:50;47.08;;;28.17;;
49710;SDS011;35602;44.534;18.696;2022-08-19T12:37:51;44.60;;;29.25;;
49710;SDS011;35602;44.534;18.696;2022-08-19T12:42:52;50.67;;;31.55;;
49710;SDS011;35602;44.534;18.696;2022-08-19T12:47:54;44.60;;;30.12;;
49710;SDS011;35602;44.534;18.696;2022-08-19T12:52:55;40.20;;;28.38;;
49710;SDS011;35602;44.534;18.696;2022-08-19T12:57:57;38.47;;;26.65;;
49710;SDS011;35602;44.534;18.696;2022-08-19T13:02:58;40.28;;;27.20;;
49710;SDS011;35602;44.534;18.696;2022-08-19T13:07:59;44.67;;;28.35;;
49710;SDS011;35602;44.534;18.696;2022-08-19T13:13:04;44.17;;;28.42;;
49710;SDS011;35602;44.534;18.696;2022-08-19T13:18:08;43.13;;;27.62;;
49710;SDS011;35602;44.534;18.696;2022-08-19T13:23:10;39.90;;;27.40;;
49710;SDS011;35602;44.534;18.696;2022-08-19T13:28:11;42.50;;;26.83;;
49710;SDS011;35602;44.534;18.696;2022-08-19T13:33:11;45.78;;;26.85;;
49710;SDS011;35602;44.534;18.696;2022-08-19T13:38:16;37.15;;;24.50;;
49710;SDS011;35602;44.534;18.696;2022-08-19T13:43:19;41.53;;;27.15;;
49710;SDS011;35602;44.534;18.696;2022-08-19T13:48:24;39.47;;;26.20;;
49710;SDS011;35602;44.534;18.696;2022-08-19T13:53:26;40.45;;;25.45;;
49710;SDS011;35602;44.534;18.696;2022-08-19T13:58:27;37.50;;;24.37;;
49710;SDS011;35602;44.534;18.696;2022-08-19T14:03:28;41.50;;;24.70;;
49710;SDS011;35602;44.534;18.696;2022-08-19T14:08:29;45.15;;;24.58;;
49710;SDS011;35602;44.534;18.696;2022-08-19T14:13:32;36.53;;;23.77;;
49710;SDS011;35602;44.534;18.696;2022-08-19T14:18:34;30.65;;;22.52;;
49710;SDS011;35602;44.534;18.696;2022-08-19T14:23:35;38.13;;;23.95;;
49710;SDS011;35602;44.534;18.696;2022-08-19T14:28:36;37.08;;;23.60;;
49710;SDS011;35602;44.534;18.696;2022-08-19T14:33:40;34.80;;;22.83;;
49710;SDS011;35602;44.534;18.696;2022-08-19T14:38:42;34.85;;;23.60;;
49710;SDS011;35602;44.534;18.696;2022-08-19T14:43:43;35.45;;;23.85;;
49710;SDS011;35602;44.534;18.696;2022-08-19T14:48:46;33.30;;;22.95;;
49710;SDS011;35602;44.534;18.696;2022-08-19T14:53:47;32.17;;;22.17;;
49710;SDS011;35602;44.534;18.696;2022-08-19T14:58:52;33.63;;;22.30;;
49710;SDS011;35602;44.534;18.696;2022-08-19T15:03:53;28.60;;;21.83;;
49710;SDS011;35602;44.534;18.696;2022-08-19T15:08:54;33.47;;;20.88;;
49710;SDS011;35602;44.534;18.696;2022-08-19T15:13:55;30.60;;;22.37;;
49710;SDS011;35602;44.534;18.696;2022-08-19T15:18:57;31.08;;;22.02;;
49710;SDS011;35602;44.534;18.696;2022-08-19T15:24:02;29.70;;;22.30;;
49710;SDS011;35602;44.534;18.696;2022-08-19T15:29:04;30.65;;;21.83;;
49710;SDS011;35602;44.534;18.696;2022-08-19T15:34:05;29.90;;;22.17;;
49710;SDS011;35602;44.534;18.696;2022-08-19T15:39:06;28.67;;;21.73;;
49710;SDS011;35602;44.534;18.696;2022-08-19T15:44:10;28.35;;;21.55;;
49710;SDS011;35602;44.534;18.696;2022-08-19T15:49:15;29.80;;;21.52;;
49710;SDS011;35602;44.534;18.696;2022-08-19T15:54:17;30.50;;;21.98;;
49710;SDS011;35602;44.534;18.696;2022-08-19T15:59:20;27.50;;;20.12;;
49710;SDS011;35602;44.534;18.696;2022-08-19T16:04:41;25.62;;;19.83;;
49710;SDS011;35602;44.534;18.696;2022-08-19T16:10:00;27.40;;;20.33;;
49710;SDS011;35602;44.534;18.696;2022-08-19T16:15:01;25.95;;;19.77;;
49710;SDS011;35602;44.534;18.696;2022-08-19T16:20:03;26.45;;;19.87;;
49710;SDS011;35602;44.534;18.696;2022-08-19T16:25:08;29.83;;;21.15;;
49710;SDS011;35602;44.534;18.696;2022-08-19T16:30:10;26.17;;;20.17;;
49710;SDS011;35602;44.534;18.696;2022-08-19T16:35:11;25.52;;;20.15;;
49710;SDS011;35602;44.534;18.696;2022-08-19T16:40:12;24.37;;;20.10;;
49710;SDS011;35602;44.534;18.696;2022-08-19T16:45:13;26.45;;;20.73;;
49710;SDS011;35602;44.534;18.696;2022-08-19T16:50:15;24.65;;;20.33;;
49710;SDS011;35602;44.534;18.696;2022-08-19T16:55:18;26.95;;;19.48;;
49710;SDS011;35602;44.534;18.696;2022-08-19T17:00:21;24.45;;;19.08;;
49710;SDS011;35602;44.534;18.696;2022-08-19T17:05:22;27.37;;;20.55;;
49710;SDS011;35602;44.534;18.696;2022-08-19T17:10:23;24.58;;;19.65;;
49710;SDS011;35602;44.534;18.696;2022-08-19T17:15:24;23.25;;;18.92;;
49710;SDS011;35602;44.534;18.696;2022-08-19T17:20:25;23.60;;;20.35;;
49710;SDS011;35602;44.534;18.696;2022-08-19T17:25:27;26.30;;;19.87;;
49710;SDS011;35602;44.534;18.696;2022-08-19T17:30:30;22.67;;;20.02;;
49710;SDS011;35602;44.534;18.696;2022-08-19T17:35:31;22.17;;;19.20;;
49710;SDS011;35602;44.534;18.696;2022-08-19T17:40:33;25.02;;;19.58;;
49710;SDS011;35602;44.534;18.696;2022-08-19T17:45:36;25.75;;;19.85;;
49710;SDS011;35602;44.534;18.696;2022-08-19T17:50:38;24.50;;;19.27;;
49710;SDS011;35602;44.534;18.696;2022-08-19T17:55:40;23.95;;;18.77;;
49710;SDS011;35602;44.534;18.696;2022-08-19T18:00:41;22.73;;;19.05;;
49710;SDS011;35602;44.534;18.696;2022-08-19T18:05:42;23.75;;;18.85;;
49710;SDS011;35602;44.534;18.696;2022-08-19T18:10:43;20.83;;;18.50;;
49710;SDS011;35602;44.534;18.696;2022-08-19T18:15:44;24.17;;;18.30;;
49710;SDS011;35602;44.534;18.696;2022-08-19T18:20:46;22.62;;;18.52;;
49710;SDS011;35602;44.534;18.696;2022-08-19T18:25:47;23.20;;;19.10;;
49710;SDS011;35602;44.534;18.696;2022-08-19T18:30:48;22.00;;;18.73;;
49710;SDS011;35602;44.534;18.696;2022-08-19T18:35:48;21.77;;;18.55;;
49710;SDS011;35602;44.534;18.696;2022-08-19T18:40:52;22.20;;;18.15;;
49710;SDS011;35602;44.534;18.696;2022-08-19T18:46:11;21.15;;;18.15;;
49710;SDS011;35602;44.534;18.696;2022-08-19T18:51:30;21.50;;;18.05;;
49710;SDS011;35602;44.534;18.696;2022-08-19T18:56:31;22.60;;;18.75;;
49710;SDS011;35602;44.534;18.696;2022-08-19T19:01:35;22.67;;;17.92;;
49710;SDS011;35602;44.534;18.696;2022-08-19T19:06:39;21.40;;;18.07;;
49710;SDS011;35602;44.534;18.696;2022-08-19T19:11:42;22.50;;;17.87;;
49710;SDS011;35602;44.534;18.696;2022-08-19T19:16:44;21.10;;;17.80;;
49710;SDS011;35602;44.534;18.696;2022-08-19T19:21:45;21.02;;;17.75;;
49710;SDS011;35602;44.534;18.696;2022-08-19T19:26:49;22.33;;;18.00;;
49710;SDS011;35602;44.534;18.696;2022-08-19T19:31:51;22.50;;;18.58;;
49710;SDS011;35602;44.534;18.696;2022-08-19T19:36:54;21.65;;;17.92;;
49710;SDS011;35602;44.534;18.696;2022-08-19T19:41:55;22.35;;;17.48;;
49710;SDS011;35602;44.534;18.696;2022-08-19T19:46:56;21.35;;;17.62;;
49710;SDS011;35602;44.534;18.696;2022-08-19T19:51:58;21.50;;;17.65;;
49710;SDS011;35602;44.534;18.696;2022-08-19T19:57:03;20.83;;;17.17;;
49710;SDS011;35602;44.534;18.696;2022-08-19T20:02:04;22.33;;;17.80;;
49710;SDS011;35602;44.534;18.696;2022-08-19T20:07:05;20.83;;;17.20;;
49710;SDS011;35602;44.534;18.696;2022-08-19T20:12:06;20.40;;;16.40;;
49710;SDS011;35602;44.534;18.696;2022-08-19T20:17:07;20.30;;;17.17;;
49710;SDS011;35602;44.534;18.696;2022-08-19T20:22:07;18.52;;;16.62;;
49710;SDS011;35602;44.534;18.696;2022-08-19T20:27:09;19.02;;;16.75;;
49710;SDS011;35602;44.534;18.696;2022-08-19T20:32:11;18.30;;;16.27;;
49710;SDS011;35602;44.534;18.696;2022-08-19T20:37:12;18.95;;;16.90;;
49710;SDS011;35602;44.534;18.696;2022-08-19T20:42:12;20.90;;;17.17;;
49710;SDS011;35602;44.534;18.696;2022-08-19T20:47:13;20.67;;;16.83;;
49710;SDS011;35602;44.534;18.696;2022-08-19T20:52:14;18.83;;;15.95;;
49710;SDS011;35602;44.534;18.696;2022-08-19T20:57:15;20.60;;;16.23;;
49710;SDS011;35602;44.534;18.696;2022-08-19T21:02:16;19.60;;;16.25;;
49710;SDS011;35602;44.534;18.696;2022-08-19T21:07:19;23.23;;;16.50;;
49710;SDS011;35602;44.534;18.696;2022-08-19T21:12:19;17.85;;;15.70;;
49710;SDS011;35602;44.534;18.696;2022-08-19T21:17:20;19.60;;;15.57;;
49710;SDS011;35602;44.534;18.696;2022-08-19T21:22:21;19.35;;;15.88;;
49710;SDS011;35602;44.534;18.696;2022-08-19T21:27:22;18.23;;;15.32;;
49710;SDS011;35602;44.534;18.696;2022-08-19T21:32:23;19.35;;;16.05;;
49710;SDS011;35602;44.534;18.696;2022-08-19T21:37:24;17.45;;;15.25;;
49710;SDS011;35602;44.534;18.696;2022-08-19T21:42:25;18.87;;;15.45;;
49710;SDS011;35602;44.534;18.696;2022-08-19T21:47:25;18.27;;;15.95;;
49710;SDS011;35602;44.534;18.696;2022-08-19T21:52:26;17.77;;;14.65;;
49710;SDS011;35602;44.534;18.696;2022-08-19T21:57:27;16.55;;;14.52;;
49710;SDS011;35602;44.534;18.696;2022-08-19T22:02:28;17.15;;;15.27;;
49710;SDS011;35602;44.534;18.696;2022-08-19T22:07:30;18.48;;;15.48;;
49710;SDS011;35602;44.534;18.696;2022-08-19T22:12:31;16.35;;;14.40;;
49710;SDS011;35602;44.534;18.696;2022-08-19T22:17:35;19.52;;;15.40;;
49710;SDS011;35602;44.534;18.696;2022-08-19T22:22:38;20.20;;;15.10;;
49710;SDS011;35602;44.534;18.696;2022-08-19T22:27:44;17.67;;;14.57;;
49710;SDS011;35602;44.534;18.696;2022-08-19T22:32:46;18.25;;;15.20;;
49710;SDS011;35602;44.534;18.696;2022-08-19T22:37:50;15.80;;;14.20;;
49710;SDS011;35602;44.534;18.696;2022-08-19T22:42:58;17.45;;;14.45;;
49710;SDS011;35602;44.534;18.696;2022-08-19T22:48:06;16.17;;;14.52;;
49710;SDS011;35602;44.534;18.696;2022-08-19T22:53:09;15.68;;;13.98;;
49710;SDS011;35602;44.534;18.696;2022-08-19T22:58:11;17.27;;;14.38;;
49710;SDS011;35602;44.534;18.696;2022-08-19T23:03:12;17.48;;;14.30;;
49710;SDS011;35602;44.534;18.696;2022-08-19T23:08:12;16.75;;;14.43;;
49710;SDS011;35602;44.534;18.696;2022-08-19T23:13:13;16.30;;;14.23;;
49710;SDS011;35602;44.534;18.696;2022-08-19T23:18:16;17.25;;;14.65;;
49710;SDS011;35602;44.534;18.696;2022-08-19T23:23:19;15.55;;;13.60;;
49710;SDS011;35602;44.534;18.696;2022-08-19T23:28:23;16.10;;;13.90;;
49710;SDS011;35602;44.534;18.696;2022-08-19T23:33:43;15.63;;;14.00;;
49710;SDS011;35602;44.534;18.696;2022-08-19T23:38:44;16.20;;;13.60;;
49710;SDS011;35602;44.534;18.696;2022-08-19T23:43:47;14.63;;;13.07;;
49710;SDS011;35602;44.534;18.696;2022-08-19T23:48:48;16.23;;;13.95;;
49710;SDS011;35602;44.534;18.696;2022-08-19T23:53:49;15.93;;;13.30;;
49710;SDS011;35602;44.534;18.696;2022-08-19T23:58:50;17.70;;;13.45;;
